Time;durP1;ratioP1;P1;durP2;ratioP2;P2;SDS_P1;SDS_P2;PMS_P1;PMS_P2;Temp;Humidity;BMP_temperature;BMP_pressure;BME280_temperature;BME280_humidity;BME280_pressure;Samples;Min_cycle;Max_cycle;Signal;HPM_P1;HPM_P2
2022/07/09 00:00:34;;;;;;;4.53;1.65;;;15.40;55.10;;;;;;5052659;28;20829;-59
2022/07/09 00:02:59;;;;;;;6.70;2.00;;;15.40;55.30;;;;;;5068190;28;20029;-60
2022/07/09 00:05:25;;;;;;;3.97;1.50;;;15.40;55.30;;;;;;5055506;28;20020;-61
2022/07/09 00:07:51;;;;;;;4.68;1.80;;;15.40;55.50;;;;;;5043893;28;20022;-59
2022/07/09 00:10:17;;;;;;;3.65;1.55;;;15.40;55.50;;;;;;5047214;28;20029;-59
2022/07/09 00:12:42;;;;;;;4.43;1.50;;;15.50;55.80;;;;;;5049161;28;20041;-59
2022/07/09 00:15:09;;;;;;;2.65;1.30;;;15.50;56.10;;;;;;5058542;28;20455;-59
2022/07/09 00:17:34;;;;;;;6.00;1.55;;;15.50;56.20;;;;;;5048771;28;20025;-58
2022/07/09 00:20:02;;;;;;;7.15;1.85;;;15.60;56.10;;;;;;5047847;28;20120;-59
2022/07/09 00:22:28;;;;;;;3.75;1.40;;;15.60;56.10;;;;;;5050411;28;20025;-60
2022/07/09 00:25:01;;;;;;;3.10;1.17;;;15.60;56.10;;;;;;5044905;28;20033;-62
2022/07/09 00:27:27;;;;;;;4.30;1.60;;;15.60;56.70;;;;;;5043421;28;20521;-59
2022/07/09 00:29:53;;;;;;;3.35;1.30;;;15.70;56.10;;;;;;5049412;28;20046;-61
2022/07/09 00:32:18;;;;;;;2.88;1.30;;;15.70;56.30;;;;;;5034131;28;20030;-60
2022/07/09 00:34:44;;;;;;;4.03;1.40;;;15.70;56.30;;;;;;5052476;28;20476;-60
2022/07/09 00:37:11;;;;;;;3.13;1.23;;;15.80;56.30;;;;;;5048478;28;20034;-60
2022/07/09 00:39:37;;;;;;;2.72;1.25;;;15.80;56.20;;;;;;5044615;28;20040;-60
2022/07/09 00:42:08;;;;;;;2.97;1.35;;;15.90;56.00;;;;;;5047534;28;20034;-59
2022/07/09 00:44:34;;;;;;;3.10;1.17;;;15.80;56.30;;;;;;5054587;28;20025;-58
2022/07/09 00:47:00;;;;;;;2.20;1.17;;;15.90;56.20;;;;;;5046771;28;20033;-59
2022/07/09 00:49:29;;;;;;;2.05;1.27;;;15.90;56.20;;;;;;5044905;28;20092;-58
2022/07/09 00:51:55;;;;;;;4.82;1.63;;;15.90;56.30;;;;;;5045638;28;20068;-59
2022/07/09 00:54:22;;;;;;;4.55;1.30;;;15.90;56.30;;;;;;5044767;28;20025;-59
2022/07/09 00:56:48;;;;;;;4.22;1.45;;;15.90;56.30;;;;;;5046066;28;20077;-59
2022/07/09 00:59:15;;;;;;;2.10;1.33;;;15.90;56.30;;;;;;5049980;28;20047;-59
2022/07/09 01:01:41;;;;;;;3.88;1.60;;;15.90;56.20;;;;;;5038020;28;20030;-59
2022/07/09 01:04:07;;;;;;;4.03;1.00;;;15.90;56.20;;;;;;5052614;28;20087;-59
2022/07/09 01:06:34;;;;;;;3.22;1.42;;;15.90;56.10;;;;;;5044458;28;20080;-60
2022/07/09 01:09:01;;;;;;;2.58;1.20;;;15.90;56.20;;;;;;5044679;28;20025;-59
2022/07/09 01:11:27;;;;;;;4.25;1.10;;;15.90;56.20;;;;;;5045906;28;20052;-59
2022/07/09 01:13:53;;;;;;;3.45;1.55;;;15.90;56.30;;;;;;5042238;28;20029;-58
2022/07/09 01:16:20;;;;;;;3.55;1.27;;;15.90;56.30;;;;;;5045979;28;20022;-58
2022/07/09 01:18:49;;;;;;;3.58;1.00;;;15.90;57.10;;;;;;5045235;28;20049;-60
2022/07/09 01:21:15;;;;;;;5.90;1.35;;;15.90;56.70;;;;;;5040195;28;20395;-59
2022/07/09 01:23:40;;;;;;;4.30;1.40;;;15.90;56.50;;;;;;5045468;28;20089;-60
2022/07/09 01:26:07;;;;;;;6.90;1.55;;;15.90;56.50;;;;;;4956628;28;20022;-59
2022/07/09 01:28:33;;;;;;;5.07;1.60;;;15.90;56.60;;;;;;5050817;28;20076;-59
2022/07/09 01:31:02;;;;;;;6.70;1.60;;;15.90;56.60;;;;;;5045079;28;20033;-60
2022/07/09 01:33:28;;;;;;;3.78;1.67;;;15.90;57.20;;;;;;5050936;28;20029;-60
2022/07/09 01:35:53;;;;;;;7.88;1.50;;;15.90;56.40;;;;;;5048048;28;20041;-61
2022/07/09 01:38:19;;;;;;;4.25;1.33;;;15.90;56.50;;;;;;5054185;28;20030;-59
2022/07/09 01:40:45;;;;;;;4.50;1.40;;;15.90;56.40;;;;;;5038169;28;20064;-60
2022/07/09 01:43:10;;;;;;;2.50;1.30;;;15.90;56.40;;;;;;5052496;28;20029;-60
2022/07/09 01:45:36;;;;;;;3.53;1.40;;;15.80;56.40;;;;;;5048150;28;20109;-60
2022/07/09 01:48:02;;;;;;;4.63;1.33;;;15.80;56.50;;;;;;5047260;28;20026;-59
2022/07/09 01:50:27;;;;;;;2.67;1.08;;;15.80;56.50;;;;;;5044095;28;20036;-60
2022/07/09 01:52:53;;;;;;;3.30;1.30;;;15.80;56.50;;;;;;5051749;28;20028;-59
2022/07/09 01:55:19;;;;;;;2.92;1.20;;;15.80;56.60;;;;;;5047600;28;20040;-60
2022/07/09 01:57:45;;;;;;;2.60;1.20;;;15.80;56.60;;;;;;5035824;28;20076;-60
2022/07/09 02:00:11;;;;;;;2.90;1.08;;;15.80;56.60;;;;;;5044234;28;20035;-60
2022/07/09 02:02:37;;;;;;;3.75;1.50;;;15.80;56.60;;;;;;5048799;28;20025;-59
2022/07/09 02:05:03;;;;;;;4.57;1.40;;;15.80;56.70;;;;;;5037912;28;20033;-59
2022/07/09 02:07:29;;;;;;;5.68;1.45;;;15.80;56.70;;;;;;5053863;28;20032;-61
2022/07/09 02:09:54;;;;;;;4.10;1.40;;;15.70;56.70;;;;;;5054781;28;20022;-60
2022/07/09 02:12:20;;;;;;;2.47;1.13;;;15.70;56.80;;;;;;5045812;28;20040;-60
2022/07/09 02:14:46;;;;;;;4.55;1.33;;;15.70;56.80;;;;;;5043955;28;20056;-59
2022/07/09 02:17:12;;;;;;;4.35;1.70;;;15.70;56.80;;;;;;5046335;28;20080;-60
2022/07/09 02:19:37;;;;;;;2.40;1.20;;;15.60;56.90;;;;;;5042169;28;20072;-60
2022/07/09 02:22:03;;;;;;;2.03;1.10;;;15.70;57.00;;;;;;5052651;28;20030;-59
2022/07/09 02:24:29;;;;;;;3.72;1.23;;;15.60;57.00;;;;;;5055379;28;20143;-61
2022/07/09 02:26:55;;;;;;;2.40;1.23;;;15.60;57.00;;;;;;5045207;28;20026;-60
2022/07/09 02:29:20;;;;;;;3.03;1.30;;;15.60;57.00;;;;;;5049670;28;20045;-59
2022/07/09 02:31:46;;;;;;;2.25;1.20;;;15.60;57.10;;;;;;5045340;28;20097;-59
2022/07/09 02:34:12;;;;;;;3.10;1.30;;;15.60;57.00;;;;;;5044951;28;20382;-61
2022/07/09 02:36:37;;;;;;;4.07;1.33;;;15.60;56.90;;;;;;5053151;28;20052;-61
2022/07/09 02:39:03;;;;;;;2.83;1.27;;;15.50;56.90;;;;;;5043893;28;20040;-60
2022/07/09 02:41:29;;;;;;;6.47;1.63;;;15.50;56.90;;;;;;5055326;28;20060;-61
2022/07/09 02:43:54;;;;;;;2.90;1.50;;;15.50;57.10;;;;;;5046332;28;20024;-60
2022/07/09 02:46:20;;;;;;;2.88;1.20;;;15.40;57.20;;;;;;5050047;28;20036;-60
2022/07/09 02:48:46;;;;;;;2.05;1.25;;;15.40;57.40;;;;;;5049653;28;20029;-61
2022/07/09 02:51:11;;;;;;;4.95;1.42;;;15.30;57.40;;;;;;5056620;28;20026;-59
2022/07/09 02:53:37;;;;;;;4.90;1.60;;;15.30;57.40;;;;;;5052107;28;20479;-60
2022/07/09 02:56:03;;;;;;;2.60;1.17;;;15.30;57.30;;;;;;5055066;28;20018;-60
2022/07/09 02:58:30;;;;;;;5.05;1.30;;;15.30;57.40;;;;;;5045728;28;20029;-59
2022/07/09 03:00:56;;;;;;;2.35;1.30;;;15.30;57.50;;;;;;5043068;28;20068;-60
2022/07/09 03:03:23;;;;;;;6.05;1.95;;;15.20;57.60;;;;;;5052515;28;20036;-61
2022/07/09 03:05:49;;;;;;;17.92;8.95;;;15.20;57.50;;;;;;5044593;28;20025;-61
2022/07/09 03:08:14;;;;;;;7.97;4.65;;;15.20;57.40;;;;;;5045742;28;20032;-60
2022/07/09 03:10:40;;;;;;;5.65;2.75;;;15.10;57.60;;;;;;5045458;28;20041;-60
2022/07/09 03:13:06;;;;;;;4.88;1.80;;;15.10;57.50;;;;;;5054008;28;20037;-60
2022/07/09 03:15:31;;;;;;;4.53;1.67;;;15.00;57.80;;;;;;5046318;28;20036;-60
2022/07/09 03:17:57;;;;;;;3.38;1.60;;;15.00;57.80;;;;;;5048844;28;20032;-61
2022/07/09 03:20:23;;;;;;;2.53;1.33;;;14.90;57.70;;;;;;5042005;28;20053;-60
2022/07/09 03:22:48;;;;;;;2.50;1.10;;;14.90;57.70;;;;;;5039300;28;20034;-60
2022/07/09 03:25:14;;;;;;;3.20;1.10;;;14.90;57.90;;;;;;5049371;28;20025;-59
2022/07/09 03:27:40;;;;;;;2.63;1.20;;;14.80;58.00;;;;;;5058160;28;20044;-60
2022/07/09 03:30:06;;;;;;;2.33;1.40;;;14.80;58.00;;;;;;5052747;28;20068;-60
2022/07/09 03:32:32;;;;;;;2.47;1.13;;;14.80;58.10;;;;;;5044262;28;20085;-60
2022/07/09 03:34:57;;;;;;;3.75;1.48;;;14.70;58.10;;;;;;5046230;28;20125;-60
2022/07/09 03:37:23;;;;;;;5.60;1.50;;;14.70;58.30;;;;;;5048785;28;20049;-61
2022/07/09 03:39:49;;;;;;;2.53;1.33;;;14.70;58.50;;;;;;5048148;28;20041;-59
2022/07/09 03:42:15;;;;;;;3.13;1.20;;;14.70;58.50;;;;;;5040460;28;20030;-60
2022/07/09 03:44:41;;;;;;;4.38;1.30;;;14.70;58.50;;;;;;5064129;28;20025;-60
2022/07/09 03:47:07;;;;;;;2.83;1.20;;;14.70;58.70;;;;;;5044751;28;20490;-61
2022/07/09 03:49:34;;;;;;;3.65;1.30;;;14.60;58.80;;;;;;5044489;28;20388;-60
2022/07/09 03:52:00;;;;;;;6.60;1.38;;;14.60;59.00;;;;;;5052800;28;20084;-59
2022/07/09 03:54:26;;;;;;;2.78;1.30;;;14.70;59.00;;;;;;5043884;28;20460;-60
2022/07/09 03:56:52;;;;;;;2.78;1.35;;;14.70;59.10;;;;;;5056150;28;20048;-60
2022/07/09 03:59:18;;;;;;;3.20;1.13;;;14.70;59.20;;;;;;5050742;28;20044;-60
2022/07/09 04:01:44;;;;;;;4.32;1.23;;;14.70;59.10;;;;;;5043888;28;20223;-60
2022/07/09 04:04:09;;;;;;;2.63;1.00;;;14.70;59.10;;;;;;5043187;28;20025;-61
2022/07/09 04:06:35;;;;;;;3.53;1.13;;;14.70;59.10;;;;;;5052106;28;20089;-60
2022/07/09 04:09:04;;;;;;;3.13;1.17;;;14.70;59.00;;;;;;5042361;28;20476;-60
2022/07/09 04:11:34;;;;;;;1.73;1.20;;;14.70;59.20;;;;;;5042228;28;20486;-59
2022/07/09 04:14:02;;;;;;;8.18;1.40;;;14.70;59.70;;;;;;5051406;28;20033;-59
2022/07/09 04:16:29;;;;;;;4.45;1.05;;;14.80;59.70;;;;;;5041763;28;20034;-61
2022/07/09 04:18:55;;;;;;;3.35;1.20;;;14.80;59.30;;;;;;5043380;28;20077;-59
2022/07/09 04:21:24;;;;;;;2.03;1.20;;;14.80;59.30;;;;;;5034952;28;20152;-59
2022/07/09 04:23:50;;;;;;;1.83;1.20;;;14.80;59.30;;;;;;5051494;28;20100;-60
2022/07/09 04:26:18;;;;;;;1.80;1.05;;;14.90;59.30;;;;;;4974403;28;20053;-59
2022/07/09 04:28:44;;;;;;;3.15;1.25;;;14.90;59.20;;;;;;5057228;28;20052;-59
2022/07/09 04:31:10;;;;;;;4.05;1.38;;;14.90;59.10;;;;;;5047342;28;20029;-61
2022/07/09 04:33:36;;;;;;;4.88;1.70;;;14.90;59.10;;;;;;5053001;28;20025;-59
2022/07/09 04:36:02;;;;;;;4.15;1.05;;;15.00;59.20;;;;;;5054001;28;20057;-61
2022/07/09 04:38:28;;;;;;;2.47;1.00;;;15.00;59.40;;;;;;5046978;28;20022;-61
2022/07/09 04:40:54;;;;;;;3.72;1.17;;;15.00;59.50;;;;;;5058632;28;20080;-61
2022/07/09 04:43:21;;;;;;;2.63;1.15;;;15.00;59.50;;;;;;5051498;28;20029;-60
2022/07/09 04:45:46;;;;;;;4.72;1.25;;;15.10;59.70;;;;;;5046888;28;20039;-62
2022/07/09 04:48:12;;;;;;;3.22;1.15;;;15.10;59.70;;;;;;5057434;28;20025;-61
2022/07/09 04:50:38;;;;;;;4.13;1.10;;;15.20;59.60;;;;;;5037302;28;20038;-60
2022/07/09 04:53:04;;;;;;;2.97;1.13;;;15.20;59.50;;;;;;5046478;28;20052;-60
2022/07/09 04:55:30;;;;;;;2.33;1.15;;;15.30;59.50;;;;;;5057316;28;20026;-59
2022/07/09 04:57:56;;;;;;;4.00;1.60;;;15.40;59.70;;;;;;5054050;28;20025;-60
2022/07/09 05:00:21;;;;;;;3.50;1.20;;;15.40;59.60;;;;;;5050576;28;20036;-59
2022/07/09 05:02:47;;;;;;;4.70;1.00;;;15.50;59.60;;;;;;5046454;28;20369;-60
2022/07/09 05:05:13;;;;;;;4.82;1.00;;;15.60;59.50;;;;;;5054787;28;20022;-60
2022/07/09 05:07:41;;;;;;;5.28;1.25;;;15.70;59.50;;;;;;5047623;28;20043;-59
2022/07/09 05:10:08;;;;;;;2.78;1.10;;;15.70;59.50;;;;;;5056790;28;20024;-61
2022/07/09 05:12:33;;;;;;;4.50;1.10;;;15.80;59.60;;;;;;5055972;28;20026;-60
2022/07/09 05:14:59;;;;;;;2.45;1.10;;;15.90;59.50;;;;;;5047077;28;20039;-59
2022/07/09 05:17:25;;;;;;;4.10;0.90;;;16.00;59.30;;;;;;5057265;28;20021;-60
2022/07/09 05:19:51;;;;;;;1.85;1.10;;;16.10;59.10;;;;;;5053913;28;20041;-60
2022/07/09 05:22:16;;;;;;;3.28;1.38;;;16.20;59.20;;;;;;5047804;28;20116;-60
2022/07/09 05:24:43;;;;;;;5.82;1.30;;;16.30;59.00;;;;;;5047792;28;20029;-59
2022/07/09 05:27:10;;;;;;;2.85;1.00;;;16.30;58.80;;;;;;5046801;28;20028;-59
2022/07/09 05:29:36;;;;;;;3.28;1.30;;;16.40;58.50;;;;;;5047968;28;20069;-61
2022/07/09 05:32:02;;;;;;;9.20;1.25;;;16.40;58.20;;;;;;5049899;28;20056;-58
2022/07/09 05:34:28;;;;;;;10.55;1.40;;;16.50;58.70;;;;;;5050361;28;20036;-60
2022/07/09 05:36:57;;;;;;;3.85;1.23;;;16.50;58.10;;;;;;5046745;28;20025;-61
2022/07/09 05:39:23;;;;;;;4.28;1.50;;;16.50;58.10;;;;;;5050624;28;20052;-60
2022/07/09 05:41:49;;;;;;;3.42;1.15;;;16.50;58.00;;;;;;5043184;28;20026;-60
2022/07/09 05:44:15;;;;;;;4.47;1.10;;;16.60;58.10;;;;;;5050773;28;20029;-60
2022/07/09 05:46:41;;;;;;;3.05;1.42;;;16.60;58.10;;;;;;5055198;28;20060;-60
2022/07/09 05:49:07;;;;;;;3.25;1.27;;;16.60;58.20;;;;;;5047259;28;20030;-59
2022/07/09 05:51:33;;;;;;;3.38;1.13;;;16.70;58.20;;;;;;5058378;28;20025;-59
2022/07/09 05:53:59;;;;;;;4.47;1.38;;;16.80;58.30;;;;;;5046740;28;20041;-60
2022/07/09 05:56:25;;;;;;;3.20;1.20;;;16.80;58.20;;;;;;5047240;28;20021;-59
2022/07/09 05:58:51;;;;;;;7.15;1.30;;;16.90;58.10;;;;;;5055903;28;20021;-61
2022/07/09 06:01:17;;;;;;;5.15;1.70;;;17.00;58.10;;;;;;5045453;28;20064;-60
2022/07/09 06:03:43;;;;;;;8.90;1.40;;;17.10;58.10;;;;;;5046030;28;20072;-60
2022/07/09 06:06:09;;;;;;;5.30;1.10;;;17.10;58.10;;;;;;5055903;28;20030;-59
2022/07/09 06:08:35;;;;;;;3.97;1.38;;;17.30;58.10;;;;;;5048856;28;20025;-60
2022/07/09 06:11:01;;;;;;;4.88;1.48;;;17.40;57.90;;;;;;5048779;28;20058;-59
2022/07/09 06:13:26;;;;;;;2.90;1.10;;;17.50;57.80;;;;;;5049611;28;20021;-60
2022/07/09 06:15:53;;;;;;;2.40;0.90;;;17.60;57.60;;;;;;5045300;28;20337;-60
2022/07/09 06:18:18;;;;;;;6.47;1.20;;;17.80;57.70;;;;;;5051588;28;20122;-60
2022/07/09 06:20:45;;;;;;;4.88;1.40;;;17.90;57.60;;;;;;5055413;28;20464;-59
2022/07/09 06:23:11;;;;;;;4.07;1.30;;;18.10;57.40;;;;;;5048855;28;20045;-60
2022/07/09 06:25:38;;;;;;;3.75;1.38;;;18.20;57.40;;;;;;5011652;28;20599;-59
2022/07/09 06:28:04;;;;;;;4.32;1.08;;;18.40;57.20;;;;;;5047740;28;20045;-60
2022/07/09 06:30:29;;;;;;;5.22;1.25;;;18.60;57.20;;;;;;5050413;28;20029;-59
2022/07/09 06:32:55;;;;;;;4.43;1.20;;;18.80;57.10;;;;;;5048174;28;20025;-60
2022/07/09 06:35:21;;;;;;;2.20;1.02;;;19.00;57.00;;;;;;5050971;28;20040;-60
2022/07/09 06:37:46;;;;;;;3.45;1.33;;;19.30;56.60;;;;;;5047700;28;20024;-61
2022/07/09 06:40:12;;;;;;;4.25;1.02;;;19.50;56.30;;;;;;5053615;28;20068;-59
2022/07/09 06:42:38;;;;;;;6.10;1.65;;;19.70;55.90;;;;;;5048731;28;20029;-61
2022/07/09 06:45:04;;;;;;;4.97;1.10;;;19.90;55.50;;;;;;5044516;28;20033;-60
2022/07/09 06:47:30;;;;;;;5.80;0.93;;;20.20;55.30;;;;;;5042507;28;20026;-60
2022/07/09 06:49:56;;;;;;;2.17;1.00;;;20.40;55.00;;;;;;5048578;28;20029;-59
2022/07/09 06:52:22;;;;;;;4.97;1.00;;;20.50;54.80;;;;;;5048467;28;20029;-59
2022/07/09 06:54:47;;;;;;;2.50;1.20;;;20.70;54.70;;;;;;5046214;28;20029;-59
2022/07/09 06:57:13;;;;;;;5.78;1.40;;;20.90;54.50;;;;;;5045728;28;20025;-60
2022/07/09 06:59:39;;;;;;;3.05;0.82;;;21.10;54.30;;;;;;5041282;28;20072;-59
2022/07/09 07:02:05;;;;;;;2.53;1.02;;;21.30;54.00;;;;;;5048633;28;20030;-61
2022/07/09 07:04:31;;;;;;;2.42;0.80;;;21.50;53.70;;;;;;5041231;28;20052;-59
2022/07/09 07:06:56;;;;;;;2.03;0.70;;;21.70;53.50;;;;;;5037532;28;20049;-60
2022/07/09 07:09:22;;;;;;;3.50;0.63;;;21.90;53.40;;;;;;5037583;28;20068;-61
2022/07/09 07:11:49;;;;;;;3.35;0.82;;;22.10;52.80;;;;;;5046886;28;20025;-59
2022/07/09 07:14:15;;;;;;;5.25;1.85;;;22.20;52.40;;;;;;5055182;28;20029;-59
2022/07/09 07:16:42;;;;;;;2.22;0.52;;;22.40;52.40;;;;;;5047755;28;20080;-61
2022/07/09 07:19:09;;;;;;;3.00;0.70;;;22.60;51.70;;;;;;5074359;28;20112;-60
2022/07/09 07:21:35;;;;;;;0.57;0.40;;;22.70;51.80;;;;;;5040347;28;20037;-59
2022/07/09 07:24:00;;;;;;;3.28;0.70;;;22.80;51.50;;;;;;5046946;28;20057;-59
2022/07/09 07:26:26;;;;;;;2.13;0.75;;;23.00;51.30;;;;;;5045642;28;20022;-58
2022/07/09 07:28:51;;;;;;;1.77;0.52;;;23.20;51.00;;;;;;5048750;28;20056;-59
2022/07/09 07:31:17;;;;;;;3.75;1.73;;;23.30;50.80;;;;;;5035885;28;20022;-59
2022/07/09 07:33:43;;;;;;;5.07;1.30;;;23.40;50.60;;;;;;5045962;28;20029;-59
2022/07/09 07:36:08;;;;;;;1.50;0.50;;;23.60;49.80;;;;;;5037870;28;20037;-59
2022/07/09 07:38:35;;;;;;;1.20;0.43;;;23.70;49.60;;;;;;5063283;28;20471;-60
2022/07/09 07:41:00;;;;;;;2.10;0.75;;;23.80;48.90;;;;;;5043370;28;20495;-59
2022/07/09 07:43:26;;;;;;;1.42;0.60;;;23.90;49.00;;;;;;5044175;28;20085;-59
2022/07/09 07:45:52;;;;;;;0.80;0.45;;;24.00;48.30;;;;;;5032693;28;20037;-58
2022/07/09 07:48:18;;;;;;;1.85;0.50;;;24.00;48.70;;;;;;5049127;28;20033;-59
2022/07/09 07:50:43;;;;;;;5.10;0.68;;;24.10;47.90;;;;;;5035384;28;20144;-59
2022/07/09 07:53:09;;;;;;;2.72;0.57;;;24.20;47.70;;;;;;5044807;28;20034;-60
2022/07/09 07:55:35;;;;;;;0.85;0.40;;;24.30;48.00;;;;;;5046257;28;20052;-59
2022/07/09 07:58:01;;;;;;;7.55;0.90;;;24.40;47.80;;;;;;5043274;28;20038;-59
2022/07/09 08:00:26;;;;;;;3.50;0.50;;;24.50;47.60;;;;;;5056749;28;20080;-59
2022/07/09 08:02:52;;;;;;;2.95;0.52;;;24.70;46.90;;;;;;5045486;28;20038;-58
2022/07/09 08:05:18;;;;;;;1.60;0.50;;;24.80;46.40;;;;;;5049269;28;20037;-59
2022/07/09 08:07:43;;;;;;;1.52;0.50;;;24.90;46.40;;;;;;5046192;28;20053;-59
2022/07/09 08:10:09;;;;;;;0.95;0.43;;;25.00;46.50;;;;;;5049369;28;20017;-59
2022/07/09 08:12:35;;;;;;;2.65;0.45;;;25.10;47.20;;;;;;5050756;28;20021;-60
2022/07/09 08:15:01;;;;;;;1.08;0.47;;;25.30;46.40;;;;;;5060535;28;20032;-59
2022/07/09 08:17:26;;;;;;;1.55;0.50;;;25.40;46.30;;;;;;5035425;28;20389;-59
2022/07/09 08:19:52;;;;;;;1.92;0.52;;;25.50;46.40;;;;;;5062008;28;20087;-60
2022/07/09 08:22:18;;;;;;;0.77;0.63;;;25.70;46.00;;;;;;5052867;28;20110;-59
2022/07/09 08:24:43;;;;;;;5.78;1.27;;;25.80;45.30;;;;;;5056718;28;20036;-60
2022/07/09 08:27:09;;;;;;;1.65;0.68;;;25.90;44.60;;;;;;5054545;28;20083;-60
2022/07/09 08:29:35;;;;;;;3.17;0.70;;;25.80;43.70;;;;;;5035474;28;20104;-60
2022/07/09 08:32:02;;;;;;;2.63;0.60;;;25.70;43.60;;;;;;5044431;28;20072;-60
2022/07/09 08:34:27;;;;;;;0.52;0.40;;;25.60;42.90;;;;;;5051902;28;20028;-61
2022/07/09 08:36:53;;;;;;;1.25;0.50;;;25.40;43.20;;;;;;5055638;28;20048;-59
2022/07/09 08:39:20;;;;;;;3.33;0.50;;;25.30;43.30;;;;;;5048913;28;20045;-60
2022/07/09 08:41:46;;;;;;;1.75;0.70;;;25.10;43.40;;;;;;5040375;28;20049;-61
2022/07/09 08:44:12;;;;;;;1.50;0.60;;;24.90;43.70;;;;;;5067634;28;20033;-59
2022/07/09 08:46:41;;;;;;;3.58;0.80;;;24.80;44.10;;;;;;5048852;28;20030;-59
2022/07/09 08:49:11;;;;;;;0.95;0.50;;;24.70;44.10;;;;;;5051485;28;20037;-58
2022/07/09 08:51:37;;;;;;;3.17;0.75;;;24.60;44.80;;;;;;5026796;28;20036;-60
2022/07/09 08:54:04;;;;;;;2.03;0.65;;;24.50;44.90;;;;;;5024254;28;20025;-60
2022/07/09 08:56:30;;;;;;;7.45;0.90;;;24.60;45.50;;;;;;5019728;28;20617;-59
2022/07/09 08:58:55;;;;;;;5.20;1.27;;;24.70;45.60;;;;;;5034002;28;20033;-58
2022/07/09 09:01:21;;;;;;;3.92;0.80;;;24.90;45.50;;;;;;5060735;28;20037;-60
2022/07/09 09:03:47;;;;;;;1.50;0.60;;;25.00;45.90;;;;;;5045724;28;20060;-59
2022/07/09 09:06:13;;;;;;;3.83;0.77;;;25.20;44.70;;;;;;5043367;28;20036;-60
2022/07/09 09:08:42;;;;;;;20.40;3.65;;;25.30;43.90;;;;;;5052508;28;20037;-58
2022/07/09 09:11:26;;;;;;;4.15;0.65;;;25.30;43.40;;;;;;5057870;28;20033;-60
2022/07/09 09:13:53;;;;;;;1.63;0.57;;;25.40;43.30;;;;;;5029545;28;20025;-60
2022/07/09 09:16:21;;;;;;;1.40;0.60;;;25.40;43.50;;;;;;5034900;28;20030;-60
2022/07/09 09:18:50;;;;;;;26.90;4.13;;;25.40;43.40;;;;;;5046570;28;20032;-59
2022/07/09 09:21:18;;;;;;;4.43;1.20;;;25.30;43.30;;;;;;5048036;28;20467;-59
2022/07/09 09:23:46;;;;;;;3.80;0.70;;;25.20;43.90;;;;;;5042386;28;20102;-60
2022/07/09 09:26:17;;;;;;;494.25;52.88;;;25.00;43.60;;;;;;5040873;28;20051;-62
2022/07/09 09:28:51;;;;;;;3.15;1.00;;;25.00;43.80;;;;;;5053116;28;20057;-59
2022/07/09 09:31:31;;;;;;;5.10;0.93;;;24.90;43.50;;;;;;5041984;28;20026;-58
2022/07/09 09:34:17;;;;;;;6.18;1.98;;;24.70;43.10;;;;;;5031323;28;20029;-59
2022/07/09 09:36:45;;;;;;;1.02;0.50;;;24.60;43.60;;;;;;5050229;28;20029;-60
2022/07/09 09:39:23;;;;;;;32.22;5.22;;;24.60;44.60;;;;;;5052982;28;20036;-61
2022/07/09 09:41:52;;;;;;;1.67;0.60;;;24.70;44.60;;;;;;5050956;28;20036;-60
2022/07/09 09:44:20;;;;;;;0.90;0.43;;;24.80;43.70;;;;;;5047379;28;20372;-60
2022/07/09 09:46:46;;;;;;;1.27;0.40;;;24.90;44.50;;;;;;5052654;28;20456;-60
2022/07/09 09:49:15;;;;;;;0.73;0.35;;;25.10;44.90;;;;;;5053203;28;20484;-59
2022/07/09 09:51:51;;;;;;;1.38;0.50;;;25.40;44.30;;;;;;5038624;28;20036;-59
2022/07/09 09:54:19;;;;;;;1.75;0.55;;;25.70;44.20;;;;;;5052950;28;20056;-59
2022/07/09 09:56:45;;;;;;;2.60;0.40;;;25.90;43.90;;;;;;5055857;28;20032;-60
2022/07/09 09:59:11;;;;;;;1.98;0.30;;;26.20;44.10;;;;;;5047009;28;20036;-61
2022/07/09 10:01:39;;;;;;;0.88;0.30;;;26.40;43.80;;;;;;5039781;28;20036;-60
2022/07/09 10:04:05;;;;;;;3.10;0.70;;;26.70;43.10;;;;;;5060870;28;20057;-59
2022/07/09 10:06:35;;;;;;;1.02;0.30;;;27.00;42.90;;;;;;5046466;28;20036;-60
2022/07/09 10:09:02;;;;;;;2.75;0.77;;;27.30;42.50;;;;;;5046333;28;20025;-59
2022/07/09 10:11:46;;;;;;;1.77;0.60;;;27.50;41.30;;;;;;5055917;28;20025;-60
2022/07/09 10:14:24;;;;;;;1.08;0.30;;;27.70;37.40;;;;;;5046510;28;20051;-60
2022/07/09 10:16:52;;;;;;;1.42;0.50;;;27.70;37.10;;;;;;5043202;28;20026;-59
2022/07/09 10:19:33;;;;;;;0.63;0.40;;;27.60;37.40;;;;;;5050053;28;20037;-60
2022/07/09 10:21:59;;;;;;;1.58;0.60;;;27.40;37.00;;;;;;5056280;28;20026;-59
2022/07/09 10:24:30;;;;;;;3.05;0.30;;;27.20;37.50;;;;;;5062444;28;20535;-61
2022/07/09 10:27:10;;;;;;;1.13;0.40;;;27.10;37.70;;;;;;5053381;28;20039;-60
2022/07/09 10:29:50;;;;;;;1.67;0.50;;;26.90;37.40;;;;;;5045305;28;20046;-60
2022/07/09 10:32:26;;;;;;;5.35;0.55;;;26.90;38.00;;;;;;5044732;28;20035;-59
2022/07/09 10:35:03;;;;;;;1.25;0.40;;;26.80;37.90;;;;;;5066077;28;20036;-60
2022/07/09 10:37:42;;;;;;;1.55;0.80;;;26.90;38.50;;;;;;5049337;28;20056;-61
2022/07/09 10:40:18;;;;;;;0.68;0.40;;;27.00;37.20;;;;;;5036576;28;20041;-59
2022/07/09 10:42:56;;;;;;;3.05;0.35;;;27.10;37.10;;;;;;5046100;28;20072;-60
2022/07/09 10:45:23;;;;;;;0.98;0.40;;;27.20;37.10;;;;;;5032971;28;20030;-60
2022/07/09 10:47:57;;;;;;;692.38;103.45;;;27.20;37.30;;;;;;5031791;28;20018;-60
2022/07/09 10:50:24;;;;;;;12.70;3.08;;;27.30;37.30;;;;;;5030717;28;20013;-59
2022/07/09 10:52:50;;;;;;;3.50;0.70;;;27.40;37.40;;;;;;5045887;28;20067;-60
2022/07/09 10:55:21;;;;;;;1.50;0.40;;;27.50;37.40;;;;;;5041706;28;20025;-60
2022/07/09 10:57:47;;;;;;;6.05;1.27;;;27.40;37.40;;;;;;5040646;28;20407;-60
2022/07/09 11:00:17;;;;;;;0.65;0.40;;;27.40;37.20;;;;;;5052176;28;20041;-60
2022/07/09 11:03:03;;;;;;;1.83;0.65;;;27.30;36.90;;;;;;5029766;28;20484;-60
2022/07/09 11:05:34;;;;;;;2.38;0.60;;;27.20;36.00;;;;;;5033533;28;20021;-61
2022/07/09 11:08:01;;;;;;;1.17;0.50;;;27.10;36.10;;;;;;5041129;28;20391;-60
2022/07/09 11:10:28;;;;;;;2.10;0.50;;;26.90;35.90;;;;;;5061237;28;20024;-60
2022/07/09 11:12:58;;;;;;;40.97;4.70;;;26.80;36.50;;;;;;5034795;28;20492;-60
2022/07/09 11:15:26;;;;;;;17.80;2.15;;;26.70;37.10;;;;;;5052788;28;20041;-59
2022/07/09 11:18:03;;;;;;;1.60;0.60;;;26.70;37.20;;;;;;5047147;28;20064;-60
2022/07/09 11:20:46;;;;;;;4.35;0.55;;;26.60;36.80;;;;;;5042628;28;20038;-60
2022/07/09 11:23:16;;;;;;;0.98;0.30;;;26.70;37.70;;;;;;5042061;28;20079;-60
2022/07/09 11:25:43;;;;;;;1.23;0.40;;;26.60;36.90;;;;;;4959369;28;20036;-60
2022/07/09 11:28:08;;;;;;;3.33;0.50;;;26.60;37.10;;;;;;5044121;28;20076;-60
2022/07/09 11:30:36;;;;;;;25.83;3.03;;;26.70;36.80;;;;;;5042131;28;20026;-60
2022/07/09 11:33:02;;;;;;;0.95;0.50;;;26.70;38.20;;;;;;5043649;28;20032;-59
2022/07/09 11:35:28;;;;;;;4.07;0.50;;;26.70;37.50;;;;;;5051372;28;20053;-60
2022/07/09 11:37:54;;;;;;;4.25;0.70;;;26.80;37.20;;;;;;5031302;28;20033;-59
2022/07/09 11:40:21;;;;;;;2.08;0.40;;;26.90;36.80;;;;;;5052861;28;20595;-60
2022/07/09 11:42:47;;;;;;;1.63;0.50;;;27.00;37.20;;;;;;5051507;28;20030;-59
2022/07/09 11:45:13;;;;;;;7.60;1.10;;;27.10;37.40;;;;;;5053620;28;20097;-59
2022/07/09 11:47:39;;;;;;;1.83;0.47;;;27.20;37.40;;;;;;5046192;28;20057;-59
2022/07/09 11:50:10;;;;;;;2.75;0.95;;;27.40;36.80;;;;;;5051232;28;20025;-60
2022/07/09 11:52:48;;;;;;;1.42;0.65;;;27.60;35.70;;;;;;5055698;28;20087;-60
2022/07/09 11:55:17;;;;;;;2.85;0.40;;;27.70;35.40;;;;;;5035309;28;20029;-58
2022/07/09 11:57:52;;;;;;;147.85;16.15;;;27.70;35.60;;;;;;5043627;28;20037;-59
2022/07/09 12:00:30;;;;;;;0.85;0.50;;;27.80;35.20;;;;;;5042625;28;20037;-60
2022/07/09 12:02:57;;;;;;;1.20;0.40;;;27.80;34.30;;;;;;5032379;28;20034;-61
2022/07/09 12:05:35;;;;;;;0.95;0.40;;;27.80;34.30;;;;;;5047302;28;20025;-62
2022/07/09 12:08:04;;;;;;;4.60;0.43;;;27.80;34.80;;;;;;5045036;28;20034;-60
2022/07/09 12:10:39;;;;;;;5.05;0.70;;;27.90;34.90;;;;;;5052319;28;20030;-60
2022/07/09 12:13:06;;;;;;;6.93;0.85;;;27.90;33.90;;;;;;5041910;28;20460;-61
2022/07/09 12:15:32;;;;;;;1.08;0.38;;;28.00;34.80;;;;;;5025091;28;20029;-60
2022/07/09 12:18:00;;;;;;;1.23;0.50;;;28.00;34.90;;;;;;5044398;28;20395;-60
2022/07/09 12:20:28;;;;;;;1.00;0.40;;;28.20;35.40;;;;;;5041684;28;20041;-60
2022/07/09 12:22:54;;;;;;;3.03;0.50;;;28.30;34.80;;;;;;5051939;28;20033;-59
2022/07/09 12:25:20;;;;;;;3.20;0.50;;;28.50;35.50;;;;;;5050305;28;20488;-59
2022/07/09 12:27:47;;;;;;;8.85;0.98;;;28.70;35.30;;;;;;5048131;28;20038;-60
2022/07/09 12:30:13;;;;;;;33.22;4.65;;;28.90;34.40;;;;;;5048504;28;20091;-60
2022/07/09 12:32:40;;;;;;;0.93;0.40;;;29.10;34.40;;;;;;5039834;28;20029;-60
2022/07/09 12:35:07;;;;;;;0.77;0.30;;;29.30;33.80;;;;;;5042955;28;20041;-60
2022/07/09 12:37:36;;;;;;;1.98;0.40;;;29.50;31.20;;;;;;5051334;28;20033;-60
2022/07/09 12:40:04;;;;;;;299.90;24.38;;;29.60;31.00;;;;;;5041667;28;20041;-63
2022/07/09 12:42:30;;;;;;;0.88;0.50;;;29.50;31.50;;;;;;5048080;28;20037;-61
2022/07/09 12:44:55;;;;;;;1.77;0.40;;;29.50;30.40;;;;;;5054795;28;20040;-61